createdAt,value
2022-08-05T00:01:35.957Z,21.50
2022-08-05T00:04:03.706Z,21.40
2022-08-05T00:06:36.133Z,21.40
2022-08-05T00:09:03.614Z,21.40
2022-08-05T00:11:35.062Z,21.40
2022-08-05T00:14:17.169Z,21.40
2022-08-05T00:16:52.421Z,21.40
2022-08-05T00:19:24.673Z,21.40
2022-08-05T00:21:51.917Z,21.30
2022-08-05T00:24:24.657Z,21.20
2022-08-05T00:26:57.547Z,21.20
2022-08-05T00:29:26.090Z,21.10
2022-08-05T00:32:13.060Z,21.10
2022-08-05T00:35:03.867Z,21.00
2022-08-05T00:37:50.987Z,21.00
2022-08-05T00:40:26.945Z,21.00
2022-08-05T00:42:58.945Z,20.90
2022-08-05T00:45:38.675Z,20.90
2022-08-05T00:48:10.668Z,20.90
2022-08-05T00:50:41.911Z,20.90
2022-08-05T00:54:00.619Z,20.80
2022-08-05T00:55:57.996Z,20.80
2022-08-05T00:58:27.454Z,20.80
2022-08-05T01:00:54.601Z,20.80
2022-08-05T01:03:22.848Z,20.80
2022-08-05T01:05:51.184Z,20.70
2022-08-05T01:08:30.704Z,20.70
2022-08-05T01:11:33.465Z,20.70
2022-08-05T01:14:00.465Z,20.70
2022-08-05T01:17:04.669Z,20.60
2022-08-05T01:20:02.479Z,20.60
2022-08-05T01:22:47.342Z,20.50
2022-08-05T01:25:39.581Z,20.50
2022-08-05T01:28:16.001Z,20.50
2022-08-05T01:31:24.327Z,20.40
2022-08-05T01:34:05.106Z,20.40
2022-08-05T01:36:42.331Z,20.40
2022-08-05T01:39:13.975Z,20.30
2022-08-05T01:42:00.711Z,20.30
2022-08-05T01:44:34.508Z,20.20
2022-08-05T01:47:02.165Z,20.20
2022-08-05T01:50:00.503Z,20.20
2022-08-05T01:52:19.232Z,20.20
2022-08-05T01:54:48.554Z,20.00
2022-08-05T01:58:09.430Z,20.00
2022-08-05T02:00:11.931Z,19.90
2022-08-05T02:03:03.505Z,19.90
2022-08-05T02:05:34.392Z,20.00
2022-08-05T02:08:04.350Z,20.00
2022-08-05T02:10:43.388Z,20.10
2022-08-05T02:13:16.878Z,20.10
2022-08-05T02:15:51.410Z,20.20
2022-08-05T02:18:32.484Z,20.20
2022-08-05T02:21:14.700Z,20.10
2022-08-05T02:23:48.596Z,20.10
2022-08-05T02:26:19.156Z,20.10
2022-08-05T02:28:48.562Z,20.10
2022-08-05T02:31:17.122Z,20.00
2022-08-05T02:33:57.308Z,20.00
2022-08-05T02:36:27.592Z,19.90
2022-08-05T02:38:55.602Z,19.90
2022-08-05T02:41:28.992Z,19.90
2022-08-05T02:44:13.052Z,19.90
2022-08-05T02:46:53.168Z,19.90
2022-08-05T02:49:27.421Z,19.90
2022-08-05T02:52:05.487Z,19.90
2022-08-05T02:54:34.983Z,20.00
2022-08-05T02:57:10.224Z,19.90
2022-08-05T02:59:53.535Z,19.90
2022-08-05T03:02:22.909Z,19.80
2022-08-05T03:04:53.293Z,19.80
2022-08-05T03:07:40.400Z,19.80
2022-08-05T03:10:07.470Z,19.80
2022-08-05T03:12:36.312Z,19.80
2022-08-05T03:15:07.044Z,19.80
2022-08-05T03:17:41.523Z,19.80
2022-08-05T03:20:10.431Z,19.80
2022-08-05T03:22:37.341Z,19.80
2022-08-05T03:25:33.974Z,19.80
2022-08-05T03:27:59.792Z,19.70
2022-08-05T03:30:28.681Z,19.70
2022-08-05T03:33:05.752Z,19.70
2022-08-05T03:35:34.029Z,19.60
2022-08-05T03:38:08.109Z,19.60
2022-08-05T03:40:35.827Z,19.50
2022-08-05T03:43:59.181Z,19.50
2022-08-05T03:45:55.203Z,19.50
2022-08-05T03:48:35.305Z,19.50
2022-08-05T03:52:39.201Z,19.50
2022-08-05T03:55:50.443Z,19.50
2022-08-05T03:57:16.255Z,19.50
2022-08-05T03:59:54.900Z,19.50
2022-08-05T04:02:38.455Z,19.50
2022-08-05T04:05:09.730Z,19.50
2022-08-05T04:07:57.821Z,19.40
2022-08-05T04:10:27.463Z,19.40
2022-08-05T04:12:55.396Z,19.40
2022-08-05T04:15:26.673Z,19.40
2022-08-05T04:18:00.126Z,19.40
2022-08-05T04:20:27.550Z,19.40
2022-08-05T04:22:54.409Z,19.40
2022-08-05T04:25:24.241Z,19.40
2022-08-05T04:28:11.327Z,19.40
2022-08-05T04:30:39.550Z,19.40
2022-08-05T04:33:06.393Z,19.30
2022-08-05T04:36:16.247Z,19.30
2022-08-05T04:38:21.050Z,19.30
2022-08-05T04:40:50.666Z,19.20
2022-08-05T04:43:17.804Z,19.20
2022-08-05T04:45:54.859Z,19.10
2022-08-05T04:48:28.077Z,19.10
2022-08-05T04:51:03.097Z,19.10
2022-08-05T04:53:38.769Z,19.10
2022-08-05T04:56:32.979Z,19.00
2022-08-05T04:58:56.458Z,18.90
2022-08-05T05:02:05.491Z,18.90
2022-08-05T05:04:10.047Z,18.90
2022-08-05T05:06:44.413Z,18.80
2022-08-05T05:09:17.696Z,18.70
2022-08-05T05:11:53.170Z,18.70
2022-08-05T05:14:27.754Z,18.70
2022-08-05T05:17:00.046Z,18.70
2022-08-05T05:19:36.174Z,18.60
2022-08-05T05:22:24.049Z,18.70
2022-08-05T05:24:57.688Z,18.70
2022-08-05T05:27:44.331Z,18.60
2022-08-05T05:30:29.803Z,18.60
2022-08-05T05:33:03.924Z,18.70
2022-08-05T05:35:44.298Z,18.60
2022-08-05T05:38:13.487Z,18.70
2022-08-05T05:40:48.399Z,18.70
2022-08-05T05:43:27.806Z,18.70
2022-08-05T05:46:05.170Z,18.70
2022-08-05T05:48:32.706Z,18.70
2022-08-05T05:51:15.289Z,18.70
2022-08-05T05:53:54.231Z,18.60
2022-08-05T05:56:32.325Z,18.60
2022-08-05T05:59:03.219Z,18.60
2022-08-05T06:01:37.599Z,18.50
2022-08-05T06:04:11.440Z,18.50
2022-08-05T06:06:43.320Z,18.50
2022-08-05T06:09:17.667Z,18.60
2022-08-05T06:12:01.173Z,18.50
2022-08-05T06:14:30.211Z,18.50
2022-08-05T06:16:57.199Z,18.50
2022-08-05T06:19:34.024Z,18.50
2022-08-05T06:22:06.281Z,18.50
2022-08-05T06:24:33.664Z,18.60
2022-08-05T06:27:01.694Z,18.50
2022-08-05T06:29:46.373Z,18.50
2022-08-05T06:32:25.531Z,18.50
2022-08-05T06:34:57.252Z,18.50
2022-08-05T06:37:56.114Z,18.50
2022-08-05T06:40:18.521Z,18.50
2022-08-05T06:42:51.910Z,18.50
2022-08-05T06:46:03.116Z,18.50
2022-08-05T06:48:36.869Z,18.50
2022-08-05T06:50:56.207Z,18.50
2022-08-05T06:53:28.035Z,18.60
2022-08-05T06:55:59.154Z,18.60
2022-08-05T06:58:34.910Z,18.60
2022-08-05T07:01:04.559Z,18.70
2022-08-05T07:03:32.399Z,18.70
2022-08-05T07:06:00.496Z,18.80
2022-08-05T07:08:33.023Z,18.80
2022-08-05T07:10:59.932Z,18.90
2022-08-05T07:13:57.022Z,18.90
2022-08-05T07:17:56.589Z,18.90
2022-08-05T07:19:02.077Z,18.90
2022-08-05T07:21:28.813Z,18.90
2022-08-05T07:24:16.108Z,18.90
2022-08-05T07:26:42.973Z,18.90
2022-08-05T07:29:09.843Z,18.90
2022-08-05T07:31:40.926Z,18.90
2022-08-05T07:34:27.447Z,19.00
2022-08-05T07:36:55.397Z,19.00
2022-08-05T07:39:24.748Z,19.00
2022-08-05T07:42:15.027Z,19.00
2022-08-05T07:44:43.036Z,19.10
2022-08-05T07:47:14.819Z,19.10
2022-08-05T07:49:43.630Z,19.20
2022-08-05T07:52:21.742Z,19.20
2022-08-05T07:54:50.675Z,19.30
2022-08-05T07:57:41.734Z,19.40
2022-08-05T08:00:07.402Z,19.40
2022-08-05T08:03:14.706Z,19.50
2022-08-05T08:05:26.377Z,19.50
2022-08-05T08:07:59.554Z,19.60
2022-08-05T08:10:27.853Z,19.60
2022-08-05T08:12:54.604Z,19.70
2022-08-05T08:16:33.949Z,19.80
2022-08-05T08:18:14.089Z,19.90
2022-08-05T08:20:45.203Z,19.90
2022-08-05T08:24:02.054Z,20.00
2022-08-05T08:26:14.301Z,20.00
2022-08-05T08:28:58.997Z,20.10
2022-08-05T08:31:26.858Z,20.10
2022-08-05T08:33:53.739Z,20.10
2022-08-05T08:36:40.103Z,20.10
2022-08-05T08:39:15.041Z,20.20
2022-08-05T08:41:51.343Z,20.20
2022-08-05T08:45:19.237Z,20.20
2022-08-05T08:47:21.649Z,20.30
2022-08-05T08:50:22.385Z,20.40
2022-08-05T08:52:35.617Z,20.60
2022-08-05T08:55:13.318Z,20.60
2022-08-05T08:57:42.368Z,20.60
2022-08-05T09:00:15.792Z,20.70
2022-08-05T09:02:46.508Z,20.80
2022-08-05T09:05:17.660Z,20.90
2022-08-05T09:07:57.787Z,21.00
2022-08-05T09:10:27.756Z,21.20
2022-08-05T09:12:56.858Z,21.20
2022-08-05T09:15:26.627Z,21.30
2022-08-05T09:17:57.158Z,21.30
2022-08-05T09:20:37.428Z,21.40
2022-08-05T09:23:19.626Z,21.30
2022-08-05T09:26:03.069Z,21.40
2022-08-05T09:28:33.998Z,21.50
2022-08-05T09:31:22.907Z,21.50
2022-08-05T09:33:59.531Z,21.60
2022-08-05T09:36:54.493Z,21.70
2022-08-05T09:39:23.717Z,21.80
2022-08-05T09:42:07.736Z,21.80
2022-08-05T09:44:36.535Z,21.90
2022-08-05T09:47:14.066Z,22.00
2022-08-05T09:50:01.503Z,22.10
2022-08-05T09:52:30.397Z,22.20
2022-08-05T09:55:55.043Z,22.30
2022-08-05T09:57:49.425Z,22.30
2022-08-05T10:00:22.344Z,22.50
2022-08-05T10:02:52.338Z,22.60
2022-08-05T10:05:32.974Z,22.70
2022-08-05T10:08:34.524Z,22.90
2022-08-05T10:10:54.108Z,23.00
2022-08-05T10:13:45.515Z,23.10
2022-08-05T10:16:34.378Z,23.20
2022-08-05T10:19:08.525Z,23.40
2022-08-05T10:21:40.848Z,23.60
2022-08-05T10:24:10.738Z,23.70
2022-08-05T10:26:51.267Z,24.00
2022-08-05T10:29:24.038Z,24.20
2022-08-05T10:32:54.812Z,24.30
2022-08-05T10:34:54.572Z,24.30
2022-08-05T10:37:22.027Z,24.40
2022-08-05T10:39:59.455Z,24.70
2022-08-05T10:42:43.766Z,25.30
2022-08-05T10:45:23.573Z,26.20
2022-08-05T10:48:31.761Z,27.40
2022-08-05T10:51:28.926Z,28.30
2022-08-05T10:53:58.401Z,28.50
2022-08-05T10:56:31.570Z,30.00
2022-08-05T10:58:58.319Z,31.30
2022-08-05T11:02:05.166Z,32.50
2022-08-05T11:04:30.950Z,33.60
2022-08-05T11:06:58.429Z,34.60
2022-08-05T11:09:45.087Z,35.30
2022-08-05T11:12:37.319Z,35.90
2022-08-05T11:15:20.041Z,36.50
2022-08-05T11:17:57.031Z,36.90
2022-08-05T11:20:34.695Z,37.30
2022-08-05T11:23:10.539Z,37.60
2022-08-05T11:26:05.145Z,38.00
2022-08-05T11:28:24.627Z,38.30
2022-08-05T11:31:19.513Z,38.40
2022-08-05T11:34:05.375Z,38.50
2022-08-05T11:36:43.009Z,37.00
2022-08-05T11:39:10.124Z,35.70
2022-08-05T11:42:01.979Z,35.70
2022-08-05T11:44:53.114Z,36.40
2022-08-05T11:47:15.274Z,37.20
2022-08-05T11:49:49.796Z,38.00
2022-08-05T11:52:29.264Z,38.50
2022-08-05T11:54:57.373Z,39.00
2022-08-05T11:58:08.660Z,38.80
2022-08-05T12:00:30.787Z,38.50
2022-08-05T12:02:57.713Z,38.40
2022-08-05T12:05:36.347Z,38.70
2022-08-05T12:08:09.851Z,38.90
2022-08-05T12:10:43.072Z,38.50
2022-08-05T12:13:18.664Z,37.10
2022-08-05T12:16:02.539Z,35.20
2022-08-05T12:18:38.927Z,34.50
2022-08-05T12:21:13.492Z,35.20
2022-08-05T12:23:52.608Z,35.90
2022-08-05T12:26:19.392Z,35.80
2022-08-05T12:28:46.396Z,36.20
2022-08-05T12:31:23.121Z,36.80
2022-08-05T12:34:04.132Z,37.50
2022-08-05T12:36:30.891Z,37.90
2022-08-05T12:38:58.538Z,38.50
2022-08-05T12:41:34.181Z,39.00
2022-08-05T12:44:11.721Z,38.70
2022-08-05T12:46:45.540Z,37.70
2022-08-05T12:49:14.230Z,36.30
2022-08-05T12:52:14.064Z,34.90
2022-08-05T12:54:38.325Z,34.50
2022-08-05T12:57:09.466Z,35.20
2022-08-05T13:00:08.689Z,35.20
2022-08-05T13:02:30.892Z,35.80
2022-08-05T13:04:57.687Z,35.30
2022-08-05T13:07:56.154Z,34.50
2022-08-05T13:10:19.804Z,34.40
2022-08-05T13:12:51.093Z,33.80
2022-08-05T13:15:41.414Z,33.10
2022-08-05T13:18:19.956Z,32.50
2022-08-05T13:20:47.525Z,31.60
2022-08-05T13:23:18.050Z,30.90
2022-08-05T13:25:52.207Z,30.50
2022-08-05T13:28:25.809Z,30.10
2022-08-05T13:30:53.139Z,30.00
2022-08-05T13:34:21.912Z,31.10
2022-08-05T13:36:10.835Z,32.80
2022-08-05T13:38:42.054Z,34.70
2022-08-05T13:41:13.073Z,35.80
2022-08-05T13:43:45.131Z,35.70
2022-08-05T13:46:37.702Z,34.80
2022-08-05T13:49:10.523Z,33.60
2022-08-05T13:51:41.183Z,33.50
2022-08-05T13:54:13.469Z,33.20
2022-08-05T13:56:45.103Z,32.90
2022-08-05T13:59:20.363Z,33.20
2022-08-05T14:01:58.146Z,34.50
2022-08-05T14:04:33.089Z,35.80
2022-08-05T14:07:25.004Z,37.00
2022-08-05T14:09:46.833Z,38.00
2022-08-05T14:12:18.049Z,38.90
2022-08-05T14:14:59.144Z,38.60
2022-08-05T14:17:25.838Z,38.60
2022-08-05T14:19:59.623Z,38.10
2022-08-05T14:22:30.257Z,37.90
2022-08-05T14:25:01.642Z,38.40
2022-08-05T14:27:31.518Z,38.90
2022-08-05T14:29:58.233Z,38.60
2022-08-05T14:32:27.090Z,38.40
2022-08-05T14:34:56.715Z,38.60
2022-08-05T14:37:44.715Z,38.80
2022-08-05T14:40:14.278Z,39.20
2022-08-05T14:42:43.835Z,40.20
2022-08-05T14:45:10.707Z,41.20
2022-08-05T14:48:03.447Z,41.60
2022-08-05T14:50:25.255Z,40.90
2022-08-05T14:52:56.935Z,39.00
2022-08-05T14:55:26.127Z,37.60
2022-08-05T14:58:10.777Z,37.30
2022-08-05T15:00:39.469Z,36.90
2022-08-05T15:03:26.182Z,35.90
2022-08-05T15:06:07.656Z,35.10
2022-08-05T15:08:58.382Z,35.00
2022-08-05T15:11:52.311Z,34.70
2022-08-05T15:14:33.149Z,33.80
2022-08-05T15:17:00.126Z,32.70
2022-08-05T15:19:26.847Z,32.00
2022-08-05T15:21:54.571Z,31.50
2022-08-05T15:24:27.419Z,30.90
2022-08-05T15:26:55.820Z,30.40
2022-08-05T15:29:23.021Z,30.00
2022-08-05T15:31:52.899Z,29.70
2022-08-05T15:34:33.074Z,30.00
2022-08-05T15:37:06.121Z,30.20
2022-08-05T15:41:03.773Z,29.90
2022-08-05T15:42:55.825Z,29.80
2022-08-05T15:45:11.161Z,30.20
2022-08-05T15:47:38.796Z,30.40
2022-08-05T15:50:06.431Z,30.80
2022-08-05T15:52:52.724Z,31.30
2022-08-05T15:55:24.934Z,31.90
2022-08-05T15:58:08.340Z,32.20
2022-08-05T16:01:03.539Z,32.30
2022-08-05T16:03:22.002Z,32.10
2022-08-05T16:05:55.935Z,32.30
2022-08-05T16:08:22.889Z,32.90
2022-08-05T16:10:57.311Z,32.90
2022-08-05T16:13:24.206Z,32.50
2022-08-05T16:16:01.638Z,31.90
2022-08-05T16:18:30.670Z,31.10
2022-08-05T16:20:57.611Z,30.50
2022-08-05T16:23:24.626Z,30.00
2022-08-05T16:25:53.304Z,29.60
2022-08-05T16:28:24.290Z,29.30
2022-08-05T16:30:51.080Z,29.00
2022-08-05T16:33:19.667Z,28.70
2022-08-05T16:35:52.466Z,28.40
2022-08-05T16:38:25.030Z,28.20
2022-08-05T16:40:59.563Z,27.90
2022-08-05T16:43:27.634Z,27.80
2022-08-05T16:46:04.177Z,27.60
2022-08-05T16:48:37.030Z,27.50
2022-08-05T16:51:10.224Z,27.30
2022-08-05T16:54:03.224Z,27.50
2022-08-05T16:56:28.004Z,27.90
2022-08-05T16:58:55.021Z,27.80
2022-08-05T17:01:22.101Z,27.70
2022-08-05T17:03:51.211Z,27.40
2022-08-05T17:06:18.479Z,27.20
2022-08-05T17:08:52.877Z,27.00
2022-08-05T17:11:20.841Z,26.80
2022-08-05T17:13:51.040Z,26.50
2022-08-05T17:16:32.560Z,26.30
2022-08-05T17:19:00.934Z,26.20
2022-08-05T17:21:35.490Z,26.00
2022-08-05T17:24:18.407Z,25.90
2022-08-05T17:26:53.203Z,25.80
2022-08-05T17:29:22.783Z,25.70
2022-08-05T17:32:01.053Z,25.60
2022-08-05T17:34:32.099Z,25.40
2022-08-05T17:37:00.309Z,25.40
2022-08-05T17:39:34.098Z,25.20
2022-08-05T17:42:19.056Z,25.20
2022-08-05T17:44:50.303Z,25.10
2022-08-05T17:47:21.932Z,25.10
2022-08-05T17:49:51.678Z,25.00
2022-08-05T17:52:31.589Z,24.90
2022-08-05T17:54:58.627Z,24.90
2022-08-05T17:57:25.825Z,24.90
2022-08-05T18:00:04.982Z,24.90
2022-08-05T18:02:35.847Z,24.90
2022-08-05T18:05:07.859Z,24.90
2022-08-05T18:07:41.389Z,24.80
2022-08-05T18:10:11.420Z,24.80
2022-08-05T18:12:38.969Z,24.70
2022-08-05T18:15:06.419Z,24.70
2022-08-05T18:18:00.240Z,24.60
2022-08-05T18:20:29.520Z,24.60
2022-08-05T18:23:00.731Z,24.50
2022-08-05T18:25:36.787Z,24.40
2022-08-05T18:28:06.467Z,24.30
2022-08-05T18:30:33.924Z,24.30
2022-08-05T18:33:01.380Z,24.30
2022-08-05T18:35:49.619Z,24.30
2022-08-05T18:38:18.907Z,24.20
2022-08-05T18:41:53.495Z,24.10
2022-08-05T18:43:38.342Z,24.10
2022-08-05T18:46:09.950Z,24.10
2022-08-05T18:48:41.473Z,24.00
2022-08-05T18:52:04.810Z,23.90
2022-08-05T18:53:55.973Z,23.90
2022-08-05T18:56:25.226Z,23.80
2022-08-05T18:58:54.701Z,23.80
2022-08-05T19:01:21.998Z,23.70
2022-08-05T19:04:12.162Z,23.70
2022-08-05T19:06:45.163Z,23.70
2022-08-05T19:09:12.341Z,23.60
2022-08-05T19:12:01.022Z,23.60
2022-08-05T19:14:52.406Z,23.60
2022-08-05T19:17:12.921Z,23.50
2022-08-05T19:19:46.623Z,23.50
2022-08-05T19:22:17.222Z,23.50
2022-08-05T19:24:55.937Z,23.50
2022-08-05T19:27:27.764Z,23.50
2022-08-05T19:29:57.315Z,23.40
2022-08-05T19:32:26.189Z,23.40
2022-08-05T19:34:54.710Z,23.40
2022-08-05T19:37:35.043Z,23.40
2022-08-05T19:40:10.889Z,23.40
2022-08-05T19:42:38.856Z,23.30
2022-08-05T19:45:06.491Z,23.30
2022-08-05T19:47:37.125Z,23.30
2022-08-05T19:50:04.675Z,23.20
2022-08-05T19:52:34.388Z,23.20
2022-08-05T19:55:06.925Z,23.20
2022-08-05T19:58:19.689Z,23.20
2022-08-05T20:00:36.572Z,23.20
2022-08-05T20:03:05.215Z,23.10
2022-08-05T20:05:43.312Z,23.10
2022-08-05T20:08:17.414Z,23.20
2022-08-05T20:10:44.139Z,23.10
2022-08-05T20:13:16.187Z,23.10
2022-08-05T20:15:52.134Z,23.10
2022-08-05T20:18:32.837Z,23.10
2022-08-05T20:21:01.946Z,23.20
2022-08-05T20:23:39.726Z,23.10
2022-08-05T20:26:17.768Z,23.10
2022-08-05T20:28:48.304Z,23.10
2022-08-05T20:31:16.654Z,23.10
2022-08-05T20:33:44.068Z,23.10
2022-08-05T20:36:11.653Z,22.90
2022-08-05T20:38:53.993Z,22.90
2022-08-05T20:41:27.404Z,22.90
2022-08-05T20:44:18.899Z,22.80
2022-08-05T20:47:00.621Z,22.70
2022-08-05T20:49:27.356Z,22.60
2022-08-05T20:51:54.882Z,22.50
2022-08-05T20:54:22.832Z,22.50
2022-08-05T20:56:52.456Z,22.50
2022-08-05T20:59:26.935Z,22.40
2022-08-05T21:02:06.530Z,22.40
2022-08-05T21:04:33.601Z,22.40
2022-08-05T21:07:00.340Z,22.40
2022-08-05T21:09:27.288Z,22.40
2022-08-05T21:12:10.755Z,22.30
2022-08-05T21:14:38.718Z,22.30
2022-08-05T21:17:06.014Z,22.30
2022-08-05T21:19:46.881Z,22.20
2022-08-05T21:22:15.790Z,22.20
2022-08-05T21:24:45.419Z,22.10
2022-08-05T21:27:16.059Z,22.10
2022-08-05T21:29:43.420Z,22.00
2022-08-05T21:32:19.944Z,22.00
2022-08-05T21:35:08.481Z,21.90
2022-08-05T21:37:33.930Z,21.80
2022-08-05T21:40:04.369Z,21.80
2022-08-05T21:42:44.777Z,21.70
2022-08-05T21:45:12.448Z,21.70
2022-08-05T21:47:56.230Z,21.60
2022-08-05T21:50:25.691Z,21.60
2022-08-05T21:52:52.549Z,21.50
2022-08-05T21:55:23.721Z,21.50
2022-08-05T21:58:06.485Z,21.40
2022-08-05T22:00:33.257Z,21.40
2022-08-05T22:03:00.586Z,21.40
2022-08-05T22:05:27.622Z,21.30
2022-08-05T22:07:58.696Z,21.30
2022-08-05T22:10:27.337Z,21.30
2022-08-05T22:12:57.486Z,21.20
2022-08-05T22:16:01.210Z,21.20
2022-08-05T22:18:12.911Z,21.20
2022-08-05T22:20:41.528Z,21.10
2022-08-05T22:23:17.128Z,21.10
2022-08-05T22:26:10.066Z,21.00
2022-08-05T22:28:34.701Z,21.00
2022-08-05T22:31:05.262Z,20.90
2022-08-05T22:33:57.796Z,20.90
2022-08-05T22:36:19.119Z,20.90
2022-08-05T22:38:51.011Z,20.80
2022-08-05T22:42:04.906Z,20.80
2022-08-05T22:44:08.929Z,20.80
2022-08-05T22:46:39.891Z,20.80
2022-08-05T22:49:23.294Z,20.70
2022-08-05T22:52:05.350Z,20.70
2022-08-05T22:54:36.088Z,20.70
2022-08-05T22:57:04.579Z,20.60
2022-08-05T22:59:45.371Z,20.60
2022-08-05T23:02:16.818Z,20.60
2022-08-05T23:04:51.950Z,20.60
2022-08-05T23:07:22.059Z,20.60
2022-08-05T23:09:57.307Z,20.50
2022-08-05T23:12:28.643Z,20.50
2022-08-05T23:14:55.522Z,20.50
2022-08-05T23:17:24.621Z,20.50
2022-08-05T23:20:02.295Z,20.40
2022-08-05T23:22:29.203Z,20.40
2022-08-05T23:24:57.668Z,20.40
2022-08-05T23:27:24.351Z,20.40
2022-08-05T23:29:58.298Z,20.30
2022-08-05T23:32:26.964Z,20.30
2022-08-05T23:34:53.925Z,20.20
2022-08-05T23:37:20.639Z,20.20
2022-08-05T23:39:54.335Z,20.20
2022-08-05T23:42:29.401Z,20.20
2022-08-05T23:44:57.250Z,20.20
2022-08-05T23:47:24.961Z,20.10
2022-08-05T23:49:56.459Z,20.10
2022-08-05T23:52:25.240Z,20.10
2022-08-05T23:54:53.379Z,20.00
2022-08-05T23:57:20.120Z,20.00
